sensor_id;sensor_type;location;lat;lon;timestamp;P1;durP1;ratioP1;P2;durP2;ratioP2
651;SDS011;310;48.490;9.200;2023-05-17T00:00:33;1.70;;;1.30;;
651;SDS011;310;48.490;9.200;2023-05-17T00:02:59;1.43;;;1.23;;
651;SDS011;310;48.490;9.200;2023-05-17T00:05:25;1.50;;;1.40;;
651;SDS011;310;48.490;9.200;2023-05-17T00:07:51;1.70;;;1.60;;
651;SDS011;310;48.490;9.200;2023-05-17T00:10:16;2.33;;;1.40;;
651;SDS011;310;48.490;9.200;2023-05-17T00:12:42;1.70;;;1.60;;
651;SDS011;310;48.490;9.200;2023-05-17T00:15:07;1.40;;;1.20;;
651;SDS011;310;48.490;9.200;2023-05-17T00:17:34;1.70;;;1.40;;
651;SDS011;310;48.490;9.200;2023-05-17T00:20:02;1.48;;;1.25;;
651;SDS011;310;48.490;9.200;2023-05-17T00:22:29;13.05;;;3.78;;
651;SDS011;310;48.490;9.200;2023-05-17T00:24:55;1.60;;;1.30;;
651;SDS011;310;48.490;9.200;2023-05-17T00:27:21;1.70;;;1.37;;
651;SDS011;310;48.490;9.200;2023-05-17T00:29:46;1.97;;;1.63;;
651;SDS011;310;48.490;9.200;2023-05-17T00:32:12;1.40;;;1.10;;
651;SDS011;310;48.490;9.200;2023-05-17T00:34:37;4.27;;;2.57;;
651;SDS011;310;48.490;9.200;2023-05-17T00:37:03;3.23;;;2.03;;
651;SDS011;310;48.490;9.200;2023-05-17T00:39:28;1.50;;;1.20;;
651;SDS011;310;48.490;9.200;2023-05-17T00:41:54;1.43;;;1.20;;
651;SDS011;310;48.490;9.200;2023-05-17T00:44:20;5.07;;;2.70;;
651;SDS011;310;48.490;9.200;2023-05-17T00:46:45;1.50;;;1.17;;
651;SDS011;310;48.490;9.200;2023-05-17T00:49:11;1.50;;;1.20;;
651;SDS011;310;48.490;9.200;2023-05-17T00:51:37;1.45;;;1.20;;
651;SDS011;310;48.490;9.200;2023-05-17T00:54:04;1.40;;;1.10;;
651;SDS011;310;48.490;9.200;2023-05-17T00:56:30;1.50;;;1.30;;
651;SDS011;310;48.490;9.200;2023-05-17T00:58:57;1.70;;;1.30;;
651;SDS011;310;48.490;9.200;2023-05-17T01:01:24;2.40;;;1.65;;
651;SDS011;310;48.490;9.200;2023-05-17T01:03:50;1.50;;;1.30;;
651;SDS011;310;48.490;9.200;2023-05-17T01:06:16;2.77;;;2.23;;
651;SDS011;310;48.490;9.200;2023-05-17T01:08:42;1.60;;;1.37;;
651;SDS011;310;48.490;9.200;2023-05-17T01:13:57;1.80;;;1.50;;
651;SDS011;310;48.490;9.200;2023-05-17T01:16:32;1.73;;;1.38;;
651;SDS011;310;48.490;9.200;2023-05-17T01:27:16;1.50;;;1.35;;
651;SDS011;310;48.490;9.200;2023-05-17T01:29:44;2.08;;;1.40;;
651;SDS011;310;48.490;9.200;2023-05-17T01:32:11;1.60;;;1.40;;
651;SDS011;310;48.490;9.200;2023-05-17T01:34:40;1.60;;;1.30;;
651;SDS011;310;48.490;9.200;2023-05-17T01:37:06;1.40;;;1.20;;
651;SDS011;310;48.490;9.200;2023-05-17T01:39:31;1.50;;;1.23;;
651;SDS011;310;48.490;9.200;2023-05-17T01:50:04;2.00;;;1.40;;
651;SDS011;310;48.490;9.200;2023-05-17T01:52:46;1.73;;;1.45;;
651;SDS011;310;48.490;9.200;2023-05-17T01:57:49;1.50;;;1.10;;
651;SDS011;310;48.490;9.200;2023-05-17T02:00:17;1.60;;;1.30;;
651;SDS011;310;48.490;9.200;2023-05-17T02:02:45;1.65;;;1.50;;
651;SDS011;310;48.490;9.200;2023-05-17T02:05:11;1.43;;;1.17;;
651;SDS011;310;48.490;9.200;2023-05-17T02:07:36;1.40;;;1.10;;
651;SDS011;310;48.490;9.200;2023-05-17T02:10:03;1.63;;;1.23;;
651;SDS011;310;48.490;9.200;2023-05-17T02:12:29;1.60;;;1.27;;
651;SDS011;310;48.490;9.200;2023-05-17T02:14:55;1.70;;;1.30;;
651;SDS011;310;48.490;9.200;2023-05-17T02:17:20;1.50;;;1.30;;
651;SDS011;310;48.490;9.200;2023-05-17T02:19:46;1.50;;;1.20;;
651;SDS011;310;48.490;9.200;2023-05-17T02:22:12;1.50;;;1.30;;
651;SDS011;310;48.490;9.200;2023-05-17T02:24:39;1.60;;;1.33;;
651;SDS011;310;48.490;9.200;2023-05-17T02:27:04;2.10;;;1.50;;
651;SDS011;310;48.490;9.200;2023-05-17T02:29:30;1.50;;;1.20;;
651;SDS011;310;48.490;9.200;2023-05-17T02:31:56;1.55;;;1.30;;
651;SDS011;310;48.490;9.200;2023-05-17T02:34:21;1.60;;;1.30;;
651;SDS011;310;48.490;9.200;2023-05-17T02:36:47;1.60;;;1.20;;
651;SDS011;310;48.490;9.200;2023-05-17T02:39:13;1.50;;;1.20;;
651;SDS011;310;48.490;9.200;2023-05-17T02:41:39;1.75;;;1.45;;
651;SDS011;310;48.490;9.200;2023-05-17T02:44:07;1.60;;;1.30;;
651;SDS011;310;48.490;9.200;2023-05-17T02:46:32;1.50;;;1.20;;
651;SDS011;310;48.490;9.200;2023-05-17T02:48:58;3.03;;;1.53;;
651;SDS011;310;48.490;9.200;2023-05-17T02:51:23;1.50;;;1.20;;
651;SDS011;310;48.490;9.200;2023-05-17T02:53:49;1.50;;;1.20;;
651;SDS011;310;48.490;9.200;2023-05-17T02:56:15;1.43;;;1.10;;
651;SDS011;310;48.490;9.200;2023-05-17T02:58:41;2.20;;;1.43;;
651;SDS011;310;48.490;9.200;2023-05-17T03:01:06;1.47;;;1.20;;
651;SDS011;310;48.490;9.200;2023-05-17T03:03:33;1.67;;;1.30;;
651;SDS011;310;48.490;9.200;2023-05-17T03:05:59;1.50;;;1.20;;
651;SDS011;310;48.490;9.200;2023-05-17T03:08:25;1.50;;;1.20;;
651;SDS011;310;48.490;9.200;2023-05-17T03:10:51;1.90;;;1.40;;
651;SDS011;310;48.490;9.200;2023-05-17T03:13:17;1.70;;;1.43;;
651;SDS011;310;48.490;9.200;2023-05-17T03:15:42;1.50;;;1.17;;
651;SDS011;310;48.490;9.200;2023-05-17T03:18:08;1.50;;;1.20;;
651;SDS011;310;48.490;9.200;2023-05-17T03:20:33;1.50;;;1.23;;
651;SDS011;310;48.490;9.200;2023-05-17T03:22:59;1.70;;;1.23;;
651;SDS011;310;48.490;9.200;2023-05-17T03:25:25;2.00;;;1.50;;
651;SDS011;310;48.490;9.200;2023-05-17T03:27:50;4.43;;;2.03;;
651;SDS011;310;48.490;9.200;2023-05-17T03:30:16;1.60;;;1.40;;
651;SDS011;310;48.490;9.200;2023-05-17T03:32:42;1.80;;;1.60;;
651;SDS011;310;48.490;9.200;2023-05-17T03:35:07;1.90;;;1.37;;
651;SDS011;310;48.490;9.200;2023-05-17T03:37:33;6.57;;;1.55;;
651;SDS011;310;48.490;9.200;2023-05-17T03:39:59;2.30;;;1.87;;
651;SDS011;310;48.490;9.200;2023-05-17T03:42:24;1.47;;;1.20;;
651;SDS011;310;48.490;9.200;2023-05-17T03:44:51;1.83;;;1.50;;
651;SDS011;310;48.490;9.200;2023-05-17T03:47:16;1.53;;;1.30;;
651;SDS011;310;48.490;9.200;2023-05-17T03:49:42;1.50;;;1.20;;
651;SDS011;310;48.490;9.200;2023-05-17T03:52:07;1.60;;;1.30;;
651;SDS011;310;48.490;9.200;2023-05-17T03:54:35;1.70;;;1.30;;
651;SDS011;310;48.490;9.200;2023-05-17T03:57:01;1.50;;;1.30;;
651;SDS011;310;48.490;9.200;2023-05-17T03:59:27;1.65;;;1.40;;
651;SDS011;310;48.490;9.200;2023-05-17T04:01:53;1.50;;;1.30;;
651;SDS011;310;48.490;9.200;2023-05-17T04:04:18;1.50;;;1.27;;
651;SDS011;310;48.490;9.200;2023-05-17T04:06:44;1.70;;;1.30;;
651;SDS011;310;48.490;9.200;2023-05-17T04:09:09;1.60;;;1.30;;
651;SDS011;310;48.490;9.200;2023-05-17T04:11:37;1.67;;;1.40;;
651;SDS011;310;48.490;9.200;2023-05-17T04:14:04;2.00;;;1.35;;
651;SDS011;310;48.490;9.200;2023-05-17T04:16:30;2.43;;;1.87;;
651;SDS011;310;48.490;9.200;2023-05-17T04:18:58;1.40;;;1.10;;
651;SDS011;310;48.490;9.200;2023-05-17T04:21:24;1.63;;;1.48;;
651;SDS011;310;48.490;9.200;2023-05-17T04:23:50;1.50;;;1.20;;
651;SDS011;310;48.490;9.200;2023-05-17T04:26:16;1.47;;;1.17;;
651;SDS011;310;48.490;9.200;2023-05-17T04:28:42;1.40;;;1.10;;
651;SDS011;310;48.490;9.200;2023-05-17T04:31:08;2.00;;;1.40;;
651;SDS011;310;48.490;9.200;2023-05-17T04:33:34;1.40;;;1.10;;
651;SDS011;310;48.490;9.200;2023-05-17T04:36:00;2.10;;;1.45;;
651;SDS011;310;48.490;9.200;2023-05-17T04:38:26;1.45;;;1.15;;
651;SDS011;310;48.490;9.200;2023-05-17T04:40:52;1.70;;;1.40;;
651;SDS011;310;48.490;9.200;2023-05-17T04:43:18;1.50;;;1.23;;
651;SDS011;310;48.490;9.200;2023-05-17T04:45:43;5.77;;;1.87;;
651;SDS011;310;48.490;9.200;2023-05-17T04:48:09;1.60;;;1.37;;
651;SDS011;310;48.490;9.200;2023-05-17T04:50:35;16.93;;;2.90;;
651;SDS011;310;48.490;9.200;2023-05-17T04:53:00;1.60;;;1.20;;
651;SDS011;310;48.490;9.200;2023-05-17T04:55:26;1.60;;;1.33;;
651;SDS011;310;48.490;9.200;2023-05-17T04:57:52;1.50;;;1.20;;
651;SDS011;310;48.490;9.200;2023-05-17T05:00:17;1.53;;;1.30;;
651;SDS011;310;48.490;9.200;2023-05-17T05:02:45;1.80;;;1.60;;
651;SDS011;310;48.490;9.200;2023-05-17T05:05:10;1.50;;;1.40;;
651;SDS011;310;48.490;9.200;2023-05-17T05:07:36;1.63;;;1.43;;
651;SDS011;310;48.490;9.200;2023-05-17T05:10:03;1.90;;;1.63;;
651;SDS011;310;48.490;9.200;2023-05-17T05:12:30;1.40;;;1.15;;
651;SDS011;310;48.490;9.200;2023-05-17T05:14:55;1.83;;;1.50;;
651;SDS011;310;48.490;9.200;2023-05-17T05:17:21;1.30;;;1.07;;
651;SDS011;310;48.490;9.200;2023-05-17T05:19:47;1.40;;;1.20;;
651;SDS011;310;48.490;9.200;2023-05-17T05:22:12;1.60;;;1.30;;
651;SDS011;310;48.490;9.200;2023-05-17T05:24:38;1.30;;;1.10;;
651;SDS011;310;48.490;9.200;2023-05-17T05:27:03;1.30;;;1.00;;
651;SDS011;310;48.490;9.200;2023-05-17T05:29:29;1.50;;;1.37;;
651;SDS011;310;48.490;9.200;2023-05-17T05:31:55;1.43;;;1.30;;
651;SDS011;310;48.490;9.200;2023-05-17T05:34:20;1.50;;;1.33;;
651;SDS011;310;48.490;9.200;2023-05-17T05:36:46;1.70;;;1.40;;
651;SDS011;310;48.490;9.200;2023-05-17T05:39:11;1.50;;;1.30;;
651;SDS011;310;48.490;9.200;2023-05-17T05:41:37;2.07;;;1.40;;
651;SDS011;310;48.490;9.200;2023-05-17T05:44:03;3.57;;;1.47;;
651;SDS011;310;48.490;9.200;2023-05-17T05:46:29;1.37;;;1.20;;
651;SDS011;310;48.490;9.200;2023-05-17T05:48:54;2.07;;;1.33;;
651;SDS011;310;48.490;9.200;2023-05-17T05:51:20;3.50;;;1.40;;
651;SDS011;310;48.490;9.200;2023-05-17T05:53:45;1.40;;;1.13;;
651;SDS011;310;48.490;9.200;2023-05-17T05:56:11;1.60;;;1.30;;
651;SDS011;310;48.490;9.200;2023-05-17T05:58:37;7.53;;;2.13;;
651;SDS011;310;48.490;9.200;2023-05-17T06:01:02;1.30;;;1.20;;
651;SDS011;310;48.490;9.200;2023-05-17T06:03:28;1.37;;;1.30;;
651;SDS011;310;48.490;9.200;2023-05-17T06:05:53;1.40;;;1.30;;
651;SDS011;310;48.490;9.200;2023-05-17T06:08:19;1.50;;;1.40;;
651;SDS011;310;48.490;9.200;2023-05-17T06:10:45;2.00;;;1.60;;
651;SDS011;310;48.490;9.200;2023-05-17T06:13:10;1.60;;;1.20;;
651;SDS011;310;48.490;9.200;2023-05-17T06:15:36;1.53;;;1.30;;
651;SDS011;310;48.490;9.200;2023-05-17T06:18:02;1.43;;;1.40;;
651;SDS011;310;48.490;9.200;2023-05-17T06:20:28;2.47;;;1.60;;
651;SDS011;310;48.490;9.200;2023-05-17T06:22:53;3.30;;;1.30;;
651;SDS011;310;48.490;9.200;2023-05-17T06:25:19;1.37;;;1.03;;
651;SDS011;310;48.490;9.200;2023-05-17T06:27:45;2.60;;;1.47;;
651;SDS011;310;48.490;9.200;2023-05-17T06:30:10;1.30;;;1.10;;
651;SDS011;310;48.490;9.200;2023-05-17T06:32:36;1.30;;;1.00;;
651;SDS011;310;48.490;9.200;2023-05-17T06:35:03;1.30;;;1.10;;
651;SDS011;310;48.490;9.200;2023-05-17T06:37:29;2.00;;;1.20;;
651;SDS011;310;48.490;9.200;2023-05-17T06:40:01;1.53;;;1.23;;
651;SDS011;310;48.490;9.200;2023-05-17T06:42:30;3.10;;;2.20;;
651;SDS011;310;48.490;9.200;2023-05-17T06:44:57;1.83;;;1.40;;
651;SDS011;310;48.490;9.200;2023-05-17T06:47:23;3.50;;;1.47;;
651;SDS011;310;48.490;9.200;2023-05-17T06:49:49;1.40;;;1.30;;
651;SDS011;310;48.490;9.200;2023-05-17T06:52:14;2.23;;;1.60;;
651;SDS011;310;48.490;9.200;2023-05-17T06:54:40;4.70;;;1.60;;
651;SDS011;310;48.490;9.200;2023-05-17T06:57:06;1.40;;;1.13;;
651;SDS011;310;48.490;9.200;2023-05-17T06:59:31;2.00;;;1.33;;
651;SDS011;310;48.490;9.200;2023-05-17T07:01:57;1.30;;;1.20;;
651;SDS011;310;48.490;9.200;2023-05-17T07:04:24;1.40;;;1.20;;
651;SDS011;310;48.490;9.200;2023-05-17T07:06:50;1.30;;;1.10;;
651;SDS011;310;48.490;9.200;2023-05-17T07:09:16;1.40;;;1.13;;
651;SDS011;310;48.490;9.200;2023-05-17T07:11:42;1.40;;;1.20;;
651;SDS011;310;48.490;9.200;2023-05-17T07:14:08;1.30;;;1.17;;
651;SDS011;310;48.490;9.200;2023-05-17T07:16:34;2.50;;;1.70;;
651;SDS011;310;48.490;9.200;2023-05-17T07:18:59;1.40;;;1.20;;
651;SDS011;310;48.490;9.200;2023-05-17T07:21:25;1.40;;;1.20;;
651;SDS011;310;48.490;9.200;2023-05-17T07:23:51;1.47;;;1.30;;
651;SDS011;310;48.490;9.200;2023-05-17T07:26:17;1.40;;;1.10;;
651;SDS011;310;48.490;9.200;2023-05-17T07:28:44;1.73;;;1.47;;
651;SDS011;310;48.490;9.200;2023-05-17T07:31:09;1.70;;;1.40;;
651;SDS011;310;48.490;9.200;2023-05-17T07:33:35;1.60;;;1.40;;
651;SDS011;310;48.490;9.200;2023-05-17T07:36:02;1.50;;;1.20;;
651;SDS011;310;48.490;9.200;2023-05-17T07:38:28;1.40;;;1.10;;
651;SDS011;310;48.490;9.200;2023-05-17T07:40:53;1.97;;;1.43;;
651;SDS011;310;48.490;9.200;2023-05-17T07:43:19;1.80;;;1.50;;
651;SDS011;310;48.490;9.200;2023-05-17T07:45:44;2.03;;;1.70;;
651;SDS011;310;48.490;9.200;2023-05-17T07:48:11;4.67;;;1.60;;
651;SDS011;310;48.490;9.200;2023-05-17T07:50:37;1.50;;;1.30;;
651;SDS011;310;48.490;9.200;2023-05-17T07:53:03;1.40;;;1.20;;
651;SDS011;310;48.490;9.200;2023-05-17T07:55:28;5.50;;;1.60;;
651;SDS011;310;48.490;9.200;2023-05-17T07:57:54;2.97;;;1.80;;
651;SDS011;310;48.490;9.200;2023-05-17T08:00:19;1.40;;;1.13;;
651;SDS011;310;48.490;9.200;2023-05-17T08:02:46;1.40;;;1.20;;
651;SDS011;310;48.490;9.200;2023-05-17T08:05:12;1.50;;;1.33;;
651;SDS011;310;48.490;9.200;2023-05-17T08:07:37;1.60;;;1.20;;
651;SDS011;310;48.490;9.200;2023-05-17T08:10:03;1.70;;;1.20;;
651;SDS011;310;48.490;9.200;2023-05-17T08:12:29;2.07;;;1.70;;
651;SDS011;310;48.490;9.200;2023-05-17T08:14:54;1.43;;;1.10;;
651;SDS011;310;48.490;9.200;2023-05-17T08:17:20;1.50;;;1.20;;
651;SDS011;310;48.490;9.200;2023-05-17T08:19:46;1.50;;;1.30;;
651;SDS011;310;48.490;9.200;2023-05-17T08:22:11;1.80;;;1.40;;
651;SDS011;310;48.490;9.200;2023-05-17T08:24:37;117.53;;;3.70;;
651;SDS011;310;48.490;9.200;2023-05-17T08:27:03;1.50;;;1.27;;
651;SDS011;310;48.490;9.200;2023-05-17T08:29:29;2.30;;;1.20;;
651;SDS011;310;48.490;9.200;2023-05-17T08:31:54;2.43;;;1.50;;
651;SDS011;310;48.490;9.200;2023-05-17T08:34:20;1.30;;;1.10;;
651;SDS011;310;48.490;9.200;2023-05-17T08:36:46;127.10;;;4.60;;
651;SDS011;310;48.490;9.200;2023-05-17T08:39:12;113.10;;;2.80;;
651;SDS011;310;48.490;9.200;2023-05-17T08:41:37;106.30;;;2.93;;
651;SDS011;310;48.490;9.200;2023-05-17T08:44:04;118.70;;;5.83;;
651;SDS011;310;48.490;9.200;2023-05-17T08:46:30;116.97;;;3.50;;
651;SDS011;310;48.490;9.200;2023-05-17T08:48:57;118.50;;;3.47;;
651;SDS011;310;48.490;9.200;2023-05-17T08:51:25;121.57;;;3.67;;
651;SDS011;310;48.490;9.200;2023-05-17T08:53:51;123.27;;;4.00;;
651;SDS011;310;48.490;9.200;2023-05-17T08:56:17;95.00;;;2.37;;
651;SDS011;310;48.490;9.200;2023-05-17T08:58:45;92.80;;;2.20;;
651;SDS011;310;48.490;9.200;2023-05-17T09:01:13;89.97;;;1.80;;
651;SDS011;310;48.490;9.200;2023-05-17T09:03:40;84.20;;;1.90;;
651;SDS011;310;48.490;9.200;2023-05-17T09:06:08;81.67;;;1.80;;
651;SDS011;310;48.490;9.200;2023-05-17T09:08:35;80.00;;;2.67;;
651;SDS011;310;48.490;9.200;2023-05-17T09:11:01;67.30;;;1.90;;
651;SDS011;310;48.490;9.200;2023-05-17T09:13:27;46.90;;;1.70;;
651;SDS011;310;48.490;9.200;2023-05-17T09:15:53;34.70;;;3.47;;
651;SDS011;310;48.490;9.200;2023-05-17T09:18:18;25.43;;;1.43;;
651;SDS011;310;48.490;9.200;2023-05-17T09:20:53;19.20;;;1.50;;
651;SDS011;310;48.490;9.200;2023-05-17T09:23:19;10.47;;;1.40;;
651;SDS011;310;48.490;9.200;2023-05-17T09:25:46;8.23;;;1.63;;
651;SDS011;310;48.490;9.200;2023-05-17T09:28:12;13.57;;;1.70;;
651;SDS011;310;48.490;9.200;2023-05-17T09:30:38;92.03;;;2.87;;
651;SDS011;310;48.490;9.200;2023-05-17T09:33:06;19.23;;;1.67;;
651;SDS011;310;48.490;9.200;2023-05-17T09:35:33;1.50;;;1.50;;
651;SDS011;310;48.490;9.200;2023-05-17T09:38:10;1.70;;;1.60;;
651;SDS011;310;48.490;9.200;2023-05-17T09:40:40;1.80;;;1.40;;
651;SDS011;310;48.490;9.200;2023-05-17T09:43:10;1.73;;;1.37;;
651;SDS011;310;48.490;9.200;2023-05-17T09:45:36;1.80;;;1.30;;
651;SDS011;310;48.490;9.200;2023-05-17T09:48:12;1.80;;;1.23;;
651;SDS011;310;48.490;9.200;2023-05-17T09:50:44;1.80;;;1.23;;
651;SDS011;310;48.490;9.200;2023-05-17T09:53:27;1.70;;;1.30;;
651;SDS011;310;48.490;9.200;2023-05-17T09:55:53;1.50;;;1.30;;
651;SDS011;310;48.490;9.200;2023-05-17T09:58:21;1.40;;;1.20;;
651;SDS011;310;48.490;9.200;2023-05-17T10:00:51;2.13;;;1.70;;
651;SDS011;310;48.490;9.200;2023-05-17T10:03:18;1.60;;;1.30;;
651;SDS011;310;48.490;9.200;2023-05-17T10:05:44;1.70;;;1.60;;
651;SDS011;310;48.490;9.200;2023-05-17T10:08:14;1.93;;;1.40;;
651;SDS011;310;48.490;9.200;2023-05-17T10:10:44;1.40;;;1.30;;
651;SDS011;310;48.490;9.200;2023-05-17T10:13:12;1.60;;;1.57;;
651;SDS011;310;48.490;9.200;2023-05-17T10:15:39;2.43;;;1.80;;
651;SDS011;310;48.490;9.200;2023-05-17T10:18:07;3.30;;;1.50;;
651;SDS011;310;48.490;9.200;2023-05-17T10:20:34;10.50;;;2.63;;
651;SDS011;310;48.490;9.200;2023-05-17T10:23:00;8.40;;;1.53;;
651;SDS011;310;48.490;9.200;2023-05-17T10:25:29;39.67;;;1.83;;
651;SDS011;310;48.490;9.200;2023-05-17T10:27:55;13.77;;;1.60;;
651;SDS011;310;48.490;9.200;2023-05-17T10:30:21;3.80;;;1.40;;
651;SDS011;310;48.490;9.200;2023-05-17T10:32:47;35.37;;;1.70;;
651;SDS011;310;48.490;9.200;2023-05-17T10:35:14;26.97;;;1.60;;
651;SDS011;310;48.490;9.200;2023-05-17T10:37:41;59.77;;;1.53;;
651;SDS011;310;48.490;9.200;2023-05-17T10:40:08;20.00;;;1.50;;
651;SDS011;310;48.490;9.200;2023-05-17T10:42:38;36.03;;;2.10;;
651;SDS011;310;48.490;9.200;2023-05-17T10:45:06;30.30;;;2.20;;
651;SDS011;310;48.490;9.200;2023-05-17T10:47:33;13.07;;;1.50;;
651;SDS011;310;48.490;9.200;2023-05-17T10:49:59;6.90;;;1.57;;
651;SDS011;310;48.490;9.200;2023-05-17T10:52:25;3.47;;;1.50;;
651;SDS011;310;48.490;9.200;2023-05-17T10:54:51;2.77;;;1.40;;
651;SDS011;310;48.490;9.200;2023-05-17T10:57:18;2.87;;;1.40;;
651;SDS011;310;48.490;9.200;2023-05-17T10:59:55;3.23;;;1.67;;
651;SDS011;310;48.490;9.200;2023-05-17T11:02:26;3.60;;;1.60;;
651;SDS011;310;48.490;9.200;2023-05-17T11:04:53;3.20;;;1.50;;
651;SDS011;310;48.490;9.200;2023-05-17T11:07:24;3.30;;;1.50;;
651;SDS011;310;48.490;9.200;2023-05-17T11:10:10;2.80;;;1.30;;
651;SDS011;310;48.490;9.200;2023-05-17T11:12:44;2.90;;;1.37;;
651;SDS011;310;48.490;9.200;2023-05-17T11:15:17;2.87;;;1.30;;
651;SDS011;310;48.490;9.200;2023-05-17T11:17:49;2.80;;;1.23;;
651;SDS011;310;48.490;9.200;2023-05-17T11:22:58;3.30;;;1.50;;
651;SDS011;310;48.490;9.200;2023-05-17T11:25:38;2.77;;;1.33;;
651;SDS011;310;48.490;9.200;2023-05-17T11:28:08;9.77;;;1.70;;
651;SDS011;310;48.490;9.200;2023-05-17T11:30:42;12.30;;;1.40;;
651;SDS011;310;48.490;9.200;2023-05-17T11:33:14;12.87;;;1.50;;
651;SDS011;310;48.490;9.200;2023-05-17T11:35:41;14.00;;;1.60;;
651;SDS011;310;48.490;9.200;2023-05-17T11:40:41;11.07;;;1.77;;
651;SDS011;310;48.490;9.200;2023-05-17T11:45:53;12.30;;;1.40;;
651;SDS011;310;48.490;9.200;2023-05-17T11:48:21;2.50;;;1.30;;
651;SDS011;310;48.490;9.200;2023-05-17T11:50:50;3.10;;;1.60;;
651;SDS011;310;48.490;9.200;2023-05-17T11:53:17;1.80;;;1.30;;
651;SDS011;310;48.490;9.200;2023-05-17T11:55:44;1.70;;;1.30;;
651;SDS011;310;48.490;9.200;2023-05-17T11:58:12;1.53;;;1.20;;
651;SDS011;310;48.490;9.200;2023-05-17T12:00:41;4.33;;;1.93;;
651;SDS011;310;48.490;9.200;2023-05-17T12:03:16;1.50;;;1.27;;
651;SDS011;310;48.490;9.200;2023-05-17T12:05:45;1.57;;;1.30;;
651;SDS011;310;48.490;9.200;2023-05-17T12:08:13;2.60;;;1.40;;
651;SDS011;310;48.490;9.200;2023-05-17T12:10:49;2.27;;;1.60;;
651;SDS011;310;48.490;9.200;2023-05-17T12:13:16;2.67;;;1.57;;
651;SDS011;310;48.490;9.200;2023-05-17T12:16:20;2.30;;;1.40;;
651;SDS011;310;48.490;9.200;2023-05-17T12:18:41;1.80;;;1.40;;
651;SDS011;310;48.490;9.200;2023-05-17T12:21:09;1.60;;;1.27;;
651;SDS011;310;48.490;9.200;2023-05-17T12:23:38;1.60;;;1.30;;
651;SDS011;310;48.490;9.200;2023-05-17T12:26:08;11.40;;;1.70;;
651;SDS011;310;48.490;9.200;2023-05-17T12:28:37;11.20;;;1.40;;
651;SDS011;310;48.490;9.200;2023-05-17T12:31:04;11.17;;;1.40;;
651;SDS011;310;48.490;9.200;2023-05-17T12:33:37;10.20;;;1.40;;
651;SDS011;310;48.490;9.200;2023-05-17T12:36:05;12.93;;;2.10;;
651;SDS011;310;48.490;9.200;2023-05-17T12:38:32;8.60;;;1.90;;
651;SDS011;310;48.490;9.200;2023-05-17T12:41:02;11.10;;;1.50;;
651;SDS011;310;48.490;9.200;2023-05-17T12:43:30;9.30;;;1.47;;
651;SDS011;310;48.490;9.200;2023-05-17T12:46:01;9.70;;;1.77;;
651;SDS011;310;48.490;9.200;2023-05-17T12:48:31;8.80;;;2.13;;
651;SDS011;310;48.490;9.200;2023-05-17T12:51:04;13.17;;;2.50;;
651;SDS011;310;48.490;9.200;2023-05-17T12:53:37;26.07;;;1.70;;
651;SDS011;310;48.490;9.200;2023-05-17T12:56:04;28.00;;;1.60;;
651;SDS011;310;48.490;9.200;2023-05-17T12:58:30;30.20;;;1.97;;
651;SDS011;310;48.490;9.200;2023-05-17T13:00:59;26.50;;;1.50;;
651;SDS011;310;48.490;9.200;2023-05-17T13:03:26;27.97;;;1.50;;
651;SDS011;310;48.490;9.200;2023-05-17T13:06:02;27.80;;;1.60;;
651;SDS011;310;48.490;9.200;2023-05-17T13:08:29;87.80;;;2.37;;
651;SDS011;310;48.490;9.200;2023-05-17T13:11:05;90.40;;;2.17;;
651;SDS011;310;48.490;9.200;2023-05-17T13:13:35;92.97;;;2.20;;
651;SDS011;310;48.490;9.200;2023-05-17T13:16:00;94.23;;;2.70;;
651;SDS011;310;48.490;9.200;2023-05-17T13:18:26;95.33;;;2.30;;
651;SDS011;310;48.490;9.200;2023-05-17T13:20:52;99.20;;;2.60;;
651;SDS011;310;48.490;9.200;2023-05-17T13:23:18;100.30;;;2.87;;
651;SDS011;310;48.490;9.200;2023-05-17T13:25:44;100.47;;;2.50;;
651;SDS011;310;48.490;9.200;2023-05-17T20:36:48;114.80;;;3.30;;
651;SDS011;310;48.490;9.200;2023-05-17T20:39:13;114.70;;;3.53;;
651;SDS011;310;48.490;9.200;2023-05-17T20:41:42;114.93;;;3.13;;
651;SDS011;310;48.490;9.200;2023-05-17T20:44:08;115.30;;;3.40;;
651;SDS011;310;48.490;9.200;2023-05-17T20:46:33;115.40;;;3.40;;
651;SDS011;310;48.490;9.200;2023-05-17T20:48:59;115.50;;;3.40;;
651;SDS011;310;48.490;9.200;2023-05-17T20:51:25;115.57;;;3.37;;
651;SDS011;310;48.490;9.200;2023-05-17T20:53:51;115.53;;;3.60;;
651;SDS011;310;48.490;9.200;2023-05-17T20:56:17;115.30;;;3.20;;
651;SDS011;310;48.490;9.200;2023-05-17T20:58:43;115.50;;;3.60;;
651;SDS011;310;48.490;9.200;2023-05-17T21:01:09;115.17;;;3.60;;
651;SDS011;310;48.490;9.200;2023-05-17T21:03:35;114.93;;;3.43;;
651;SDS011;310;48.490;9.200;2023-05-17T21:06:03;114.70;;;3.20;;
651;SDS011;310;48.490;9.200;2023-05-17T21:08:30;114.80;;;3.20;;
651;SDS011;310;48.490;9.200;2023-05-17T21:10:56;115.57;;;3.60;;
651;SDS011;310;48.490;9.200;2023-05-17T21:13:22;115.33;;;3.30;;
651;SDS011;310;48.490;9.200;2023-05-17T21:15:50;116.50;;;3.33;;
651;SDS011;310;48.490;9.200;2023-05-17T21:18:16;114.97;;;3.13;;
651;SDS011;310;48.490;9.200;2023-05-17T21:20:41;114.80;;;3.00;;
651;SDS011;310;48.490;9.200;2023-05-17T21:23:07;115.40;;;3.60;;
651;SDS011;310;48.490;9.200;2023-05-17T21:25:33;114.80;;;2.93;;
651;SDS011;310;48.490;9.200;2023-05-17T21:27:59;114.67;;;3.20;;
651;SDS011;310;48.490;9.200;2023-05-17T21:30:24;114.47;;;3.20;;
651;SDS011;310;48.490;9.200;2023-05-17T21:32:50;114.80;;;3.23;;
651;SDS011;310;48.490;9.200;2023-05-17T21:35:16;114.57;;;3.07;;
651;SDS011;310;48.490;9.200;2023-05-17T21:37:41;115.00;;;3.70;;
651;SDS011;310;48.490;9.200;2023-05-17T21:40:07;115.20;;;3.50;;
651;SDS011;310;48.490;9.200;2023-05-17T21:42:33;115.13;;;3.37;;
651;SDS011;310;48.490;9.200;2023-05-17T21:45:00;114.67;;;3.20;;
651;SDS011;310;48.490;9.200;2023-05-17T21:47:26;114.30;;;3.20;;
651;SDS011;310;48.490;9.200;2023-05-17T21:49:51;114.27;;;2.90;;
651;SDS011;310;48.490;9.200;2023-05-17T21:52:17;114.60;;;3.23;;
651;SDS011;310;48.490;9.200;2023-05-17T21:54:42;114.63;;;3.30;;
651;SDS011;310;48.490;9.200;2023-05-17T21:57:08;113.27;;;2.93;;
651;SDS011;310;48.490;9.200;2023-05-17T21:59:34;115.07;;;2.97;;
651;SDS011;310;48.490;9.200;2023-05-17T22:01:59;115.20;;;3.10;;
651;SDS011;310;48.490;9.200;2023-05-17T22:04:25;115.17;;;3.13;;
651;SDS011;310;48.490;9.200;2023-05-17T22:06:51;115.17;;;3.23;;
651;SDS011;310;48.490;9.200;2023-05-17T22:09:17;115.07;;;3.03;;
651;SDS011;310;48.490;9.200;2023-05-17T22:11:43;115.30;;;3.20;;
651;SDS011;310;48.490;9.200;2023-05-17T22:14:09;115.80;;;3.50;;
651;SDS011;310;48.490;9.200;2023-05-17T22:16:35;115.37;;;3.30;;
651;SDS011;310;48.490;9.200;2023-05-17T22:19:02;115.28;;;3.00;;
651;SDS011;310;48.490;9.200;2023-05-17T22:21:28;114.85;;;3.05;;
651;SDS011;310;48.490;9.200;2023-05-17T22:23:55;115.60;;;3.67;;
651;SDS011;310;48.490;9.200;2023-05-17T22:26:21;115.00;;;3.30;;
651;SDS011;310;48.490;9.200;2023-05-17T22:28:47;115.73;;;3.23;;
651;SDS011;310;48.490;9.200;2023-05-17T22:31:12;115.37;;;3.27;;
651;SDS011;310;48.490;9.200;2023-05-17T22:33:41;115.07;;;3.23;;
651;SDS011;310;48.490;9.200;2023-05-17T22:36:07;114.85;;;3.10;;
651;SDS011;310;48.490;9.200;2023-05-17T22:38:38;114.97;;;3.00;;
651;SDS011;310;48.490;9.200;2023-05-17T22:41:10;114.95;;;3.00;;
651;SDS011;310;48.490;9.200;2023-05-17T22:43:36;115.25;;;3.25;;
651;SDS011;310;48.490;9.200;2023-05-17T22:46:02;115.40;;;3.40;;
651;SDS011;310;48.490;9.200;2023-05-17T22:48:27;115.37;;;3.30;;
651;SDS011;310;48.490;9.200;2023-05-17T22:51:03;115.25;;;3.10;;
651;SDS011;310;48.490;9.200;2023-05-17T22:53:29;115.20;;;3.00;;
651;SDS011;310;48.490;9.200;2023-05-17T22:55:55;115.57;;;3.47;;
651;SDS011;310;48.490;9.200;2023-05-17T22:58:21;115.47;;;3.37;;
651;SDS011;310;48.490;9.200;2023-05-17T23:00:49;115.47;;;3.35;;
651;SDS011;310;48.490;9.200;2023-05-17T23:03:16;115.15;;;3.13;;
651;SDS011;310;48.490;9.200;2023-05-17T23:05:42;115.32;;;3.33;;
651;SDS011;310;48.490;9.200;2023-05-17T23:08:11;115.53;;;3.38;;
651;SDS011;310;48.490;9.200;2023-05-17T23:10:39;115.65;;;3.55;;
651;SDS011;310;48.490;9.200;2023-05-17T23:13:05;115.40;;;3.53;;